Wilson, Connecticut
Current Conditions -  °F | °C
As of 4:51 AM on Sunday 25 Jan 2015 (Local Time) from KBDL Reporting Station
Overcast Overcast  
Wind Chill: 24°   Ceiling: 3400
Heat Index: 32°   Visibility: 10mi
Dew Point: 24°   Wind: 9mph
Humidity: 73%   Direction: 220°SW
Pressure: 29.51"   Gusts: NA
Location:  41.8596°N, 72.6791°W
Report Text: KBDL 250951Z 22008KT 10SM BKN034 OVC070 00/M04 A2951 RMK AO2 SLP993 T00001044 $
Loading
Personal Weather Stations






























Interactive Weather Map New forecast layout! Learn more

10-Day Weather Forecast

Advertisements
Track Severe Weather on mobile